createdAt,value
2017-10-05T00:00:10.884Z,58.50
2017-10-05T00:02:38.393Z,58.50
2017-10-05T00:05:06.674Z,58.60
2017-10-05T00:07:35.169Z,58.60
2017-10-05T00:10:02.729Z,58.60
2017-10-05T00:12:30.263Z,58.60
2017-10-05T00:14:57.762Z,58.70
2017-10-05T00:17:25.274Z,59.40
2017-10-05T00:19:52.779Z,58.70
2017-10-05T00:22:20.293Z,58.80
2017-10-05T00:24:47.788Z,58.80
2017-10-05T00:27:15.310Z,58.80
2017-10-05T00:29:42.812Z,58.90
2017-10-05T00:32:10.326Z,59.00
2017-10-05T00:34:42.768Z,59.10
2017-10-05T00:37:10.277Z,59.00
2017-10-05T00:39:38.534Z,59.20
2017-10-05T00:42:06.056Z,59.20
2017-10-05T00:44:33.554Z,59.30
2017-10-05T00:47:01.066Z,59.30
2017-10-05T00:49:28.569Z,59.40
2017-10-05T00:51:56.091Z,59.50
2017-10-05T00:54:23.590Z,59.70
2017-10-05T00:56:52.069Z,59.80
2017-10-05T00:59:19.573Z,59.90
2017-10-05T01:01:47.090Z,60.00
2017-10-05T01:04:14.594Z,60.10
2017-10-05T01:06:42.105Z,60.20
2017-10-05T01:09:10.394Z,60.40
2017-10-05T01:11:37.911Z,61.10
2017-10-05T01:14:05.405Z,60.70
2017-10-05T01:16:32.934Z,60.70
2017-10-05T01:19:00.443Z,60.90
2017-10-05T01:21:27.958Z,60.90
2017-10-05T01:23:55.454Z,60.90
2017-10-05T01:26:23.743Z,61.20
2017-10-05T01:28:51.250Z,61.20
2017-10-05T01:31:18.782Z,61.30
2017-10-05T01:33:46.291Z,61.30
2017-10-05T01:36:13.814Z,61.60
2017-10-05T01:38:41.312Z,61.50
2017-10-05T01:41:08.842Z,61.60
2017-10-05T01:43:36.361Z,61.60
2017-10-05T01:46:03.886Z,61.60
2017-10-05T01:48:31.389Z,61.60
2017-10-05T01:50:59.107Z,61.60
2017-10-05T01:53:29.608Z,61.60
2017-10-05T01:55:57.152Z,61.50
2017-10-05T01:58:24.658Z,61.50
2017-10-05T02:00:52.194Z,61.50
2017-10-05T02:03:19.706Z,61.40
2017-10-05T02:05:47.251Z,61.40
2017-10-05T02:08:15.547Z,61.50
2017-10-05T02:10:43.103Z,61.30
2017-10-05T02:13:10.610Z,61.30
2017-10-05T02:15:38.134Z,61.30
2017-10-05T02:18:05.651Z,61.30
2017-10-05T02:20:33.926Z,61.30
2017-10-05T02:23:02.210Z,61.30
2017-10-05T02:25:29.727Z,61.30
2017-10-05T02:27:57.265Z,61.30
2017-10-05T02:30:24.774Z,61.20
2017-10-05T02:32:53.057Z,61.10
2017-10-05T02:35:20.565Z,61.00
2017-10-05T02:37:48.180Z,61.00
2017-10-05T02:40:15.702Z,61.00
2017-10-05T02:42:43.214Z,60.80
2017-10-05T02:45:10.723Z,60.50
2017-10-05T02:47:38.255Z,60.50
2017-10-05T02:50:05.742Z,60.50
2017-10-05T02:52:33.267Z,60.40
2017-10-05T02:55:00.783Z,60.30
2017-10-05T02:57:29.067Z,60.10
2017-10-05T02:59:57.339Z,60.10
2017-10-05T03:02:25.652Z,60.20
2017-10-05T03:04:53.151Z,60.10
2017-10-05T03:07:20.671Z,60.10
2017-10-05T03:09:48.173Z,60.20
2017-10-05T03:12:15.718Z,60.20
2017-10-05T03:14:43.277Z,60.20
2017-10-05T03:17:10.786Z,60.30
2017-10-05T03:19:38.273Z,60.30
2017-10-05T03:22:05.866Z,60.40
2017-10-05T03:24:33.379Z,60.40
2017-10-05T03:27:00.892Z,60.50
2017-10-05T03:29:28.467Z,60.60
2017-10-05T03:31:56.746Z,60.50
2017-10-05T03:34:25.023Z,60.40
2017-10-05T03:36:53.677Z,60.40
2017-10-05T03:39:21.199Z,60.30
2017-10-05T03:41:48.717Z,60.10
2017-10-05T03:44:16.221Z,60.10
2017-10-05T03:46:43.738Z,60.20
2017-10-05T03:49:12.022Z,60.20
2017-10-05T03:51:40.302Z,60.50
2017-10-05T03:54:08.570Z,60.20
2017-10-05T03:56:37.079Z,60.30
2017-10-05T03:59:04.591Z,60.30
2017-10-05T04:01:32.108Z,60.20
2017-10-05T04:03:59.646Z,60.30
2017-10-05T04:06:27.166Z,60.30
2017-10-05T04:08:54.686Z,60.40
2017-10-05T04:11:22.205Z,61.10
2017-10-05T04:13:50.495Z,60.20
2017-10-05T04:16:18.022Z,60.20
2017-10-05T04:18:45.526Z,60.20
2017-10-05T04:21:13.037Z,60.10
2017-10-05T04:23:40.538Z,59.80
2017-10-05T04:26:08.054Z,59.70
2017-10-05T04:28:35.557Z,59.50
2017-10-05T04:31:03.063Z,59.20
2017-10-05T04:33:30.574Z,59.00
2017-10-05T04:35:58.082Z,58.70
2017-10-05T04:38:33.236Z,58.20
2017-10-05T04:41:01.534Z,57.20
2017-10-05T04:43:30.814Z,57.30
2017-10-05T04:45:58.384Z,57.20
2017-10-05T04:48:26.673Z,55.90
2017-10-05T04:50:54.946Z,55.90
2017-10-05T04:53:23.257Z,55.70
2017-10-05T04:55:50.778Z,55.70
2017-10-05T04:58:19.063Z,55.70
2017-10-05T05:00:46.772Z,55.70
2017-10-05T05:03:14.321Z,55.50
2017-10-05T05:05:41.817Z,56.10
2017-10-05T05:08:09.342Z,55.40
2017-10-05T05:10:36.833Z,55.20
2017-10-05T05:13:05.086Z,55.10
2017-10-05T05:15:32.663Z,55.30
2017-10-05T05:18:00.252Z,54.70
2017-10-05T05:20:28.965Z,55.20
2017-10-05T05:22:56.486Z,55.10
2017-10-05T05:25:24.026Z,55.10
2017-10-05T05:27:51.586Z,54.80
2017-10-05T05:30:19.078Z,54.80
2017-10-05T05:32:47.361Z,54.90
2017-10-05T05:35:15.673Z,54.90
2017-10-05T05:37:43.191Z,54.90
2017-10-05T05:40:10.694Z,54.80
2017-10-05T05:42:38.206Z,54.70
2017-10-05T05:45:05.747Z,54.70
2017-10-05T05:47:33.274Z,54.30
2017-10-05T05:50:00.761Z,54.30
2017-10-05T05:52:28.293Z,54.30
2017-10-05T05:54:55.808Z,54.20
2017-10-05T05:57:23.338Z,54.20
2017-10-05T05:59:50.857Z,54.20
2017-10-05T06:02:18.381Z,54.50
2017-10-05T06:04:46.667Z,54.80
2017-10-05T06:07:14.948Z,54.80
2017-10-05T06:09:43.209Z,54.90
2017-10-05T06:12:10.771Z,54.80
2017-10-05T06:14:38.275Z,55.00
2017-10-05T06:17:05.798Z,55.00
2017-10-05T06:19:33.349Z,55.10
2017-10-05T06:22:00.877Z,54.90
2017-10-05T06:24:29.150Z,55.10
2017-10-05T06:26:57.429Z,55.20
2017-10-05T06:29:24.922Z,55.10
2017-10-05T06:31:52.438Z,55.30
2017-10-05T06:34:19.935Z,55.20
2017-10-05T06:36:47.441Z,55.50
2017-10-05T06:39:16.075Z,55.30
2017-10-05T06:41:43.612Z,55.50
2017-10-05T06:44:11.106Z,55.40
2017-10-05T06:46:38.601Z,54.80
2017-10-05T06:49:06.118Z,54.90
2017-10-05T06:51:33.610Z,54.80
2017-10-05T06:54:01.129Z,54.10
2017-10-05T06:56:28.638Z,53.70
2017-10-05T06:58:56.913Z,53.80
2017-10-05T07:01:24.406Z,53.80
2017-10-05T07:03:51.947Z,53.00
2017-10-05T07:06:20.209Z,53.00
2017-10-05T07:08:48.485Z,52.90
2017-10-05T07:11:16.769Z,52.50
2017-10-05T07:13:44.274Z,52.00
2017-10-05T07:16:12.554Z,52.50
2017-10-05T07:18:40.834Z,52.30
2017-10-05T07:21:09.111Z,52.00
2017-10-05T07:23:37.386Z,51.80
2017-10-05T07:26:04.879Z,51.70
2017-10-05T07:28:32.395Z,51.90
2017-10-05T07:31:00.685Z,51.30
2017-10-05T07:33:28.953Z,51.20
2017-10-05T07:35:57.243Z,50.60
2017-10-05T07:38:24.738Z,50.60
2017-10-05T07:40:52.262Z,50.30
2017-10-05T07:43:20.526Z,50.60
2017-10-05T07:45:48.062Z,50.60
2017-10-05T07:48:15.566Z,50.50
2017-10-05T07:50:43.081Z,50.40
2017-10-05T07:53:10.583Z,50.50
2017-10-05T07:55:38.099Z,50.10
2017-10-05T07:58:05.610Z,49.20
2017-10-05T08:00:33.143Z,49.60
2017-10-05T08:03:01.439Z,48.70
2017-10-05T08:05:28.956Z,48.60
2017-10-05T08:07:56.479Z,48.40
2017-10-05T08:10:24.025Z,47.80
2017-10-05T08:12:51.554Z,47.40
2017-10-05T08:15:19.059Z,47.80
2017-10-05T08:17:46.570Z,46.10
2017-10-05T08:20:14.075Z,46.30
2017-10-05T08:22:42.369Z,45.20
2017-10-05T08:25:09.872Z,45.20
2017-10-05T08:27:37.371Z,45.60
2017-10-05T08:30:04.886Z,44.70
2017-10-05T08:32:32.377Z,43.70
2017-10-05T08:35:00.651Z,42.50
2017-10-05T08:37:28.910Z,42.00
2017-10-05T08:39:56.418Z,41.90
2017-10-05T08:42:23.918Z,41.00
2017-10-05T08:44:51.446Z,39.90
2017-10-05T08:47:18.945Z,39.40
2017-10-05T08:49:46.474Z,39.70
2017-10-05T08:52:13.993Z,39.30
2017-10-05T08:54:42.281Z,37.60
2017-10-05T08:57:09.782Z,37.60
2017-10-05T08:59:37.307Z,37.30
2017-10-05T09:02:04.806Z,37.00
2017-10-05T09:04:32.333Z,36.80
2017-10-05T09:06:59.841Z,38.20
2017-10-05T09:09:27.363Z,37.70
2017-10-05T09:11:55.649Z,35.90
2017-10-05T09:14:23.171Z,35.80
2017-10-05T09:16:50.716Z,34.30
2017-10-05T09:19:18.232Z,35.00
2017-10-05T09:21:45.759Z,34.10
2017-10-05T09:24:13.296Z,33.90
2017-10-05T09:26:40.814Z,34.00
2017-10-05T09:29:08.314Z,34.80
2017-10-05T09:31:36.590Z,33.50
2017-10-05T09:34:04.111Z,33.50
2017-10-05T09:36:31.639Z,33.70
2017-10-05T09:38:59.245Z,31.20
2017-10-05T09:41:26.790Z,32.20
2017-10-05T09:43:54.285Z,31.30
2017-10-05T09:46:21.807Z,31.10
2017-10-05T09:48:49.306Z,30.30
2017-10-05T09:51:16.851Z,30.20
2017-10-05T09:53:45.110Z,31.50
2017-10-05T09:56:12.630Z,31.50
2017-10-05T09:58:40.907Z,31.00
2017-10-05T10:01:08.524Z,31.00
2017-10-05T10:03:36.121Z,31.10
2017-10-05T10:06:03.631Z,31.20
2017-10-05T10:08:31.250Z,31.90
2017-10-05T10:10:59.505Z,32.30
2017-10-05T10:13:27.082Z,32.10
2017-10-05T10:15:54.621Z,32.30
2017-10-05T10:18:22.138Z,32.90
2017-10-05T10:20:50.117Z,32.10
2017-10-05T10:23:17.634Z,30.90
2017-10-05T10:25:45.936Z,30.60
2017-10-05T10:28:13.471Z,30.60
2017-10-05T10:30:41.007Z,30.40
2017-10-05T10:33:08.551Z,31.90
2017-10-05T10:35:36.045Z,31.50
2017-10-05T10:38:03.567Z,30.10
2017-10-05T10:40:31.843Z,29.10
2017-10-05T10:43:00.102Z,28.30
2017-10-05T10:45:27.619Z,28.30
2017-10-05T10:47:55.117Z,28.80
2017-10-05T10:50:22.633Z,27.80
2017-10-05T10:52:50.163Z,28.50
2017-10-05T10:55:17.678Z,28.90
2017-10-05T10:57:45.188Z,28.80
2017-10-05T11:00:12.706Z,26.90
2017-10-05T11:02:40.202Z,27.50
2017-10-05T11:05:07.817Z,28.30
2017-10-05T11:07:35.318Z,26.50
2017-10-05T11:10:03.598Z,26.90
2017-10-05T11:12:31.874Z,26.90
2017-10-05T11:15:00.156Z,26.70
2017-10-05T11:17:27.666Z,26.60
2017-10-05T11:19:55.188Z,26.40
2017-10-05T11:22:22.681Z,26.20
2017-10-05T11:24:50.198Z,27.10
2017-10-05T11:27:17.705Z,27.70
2017-10-05T11:29:45.206Z,26.90
2017-10-05T11:32:12.734Z,26.60
2017-10-05T11:34:40.257Z,26.80
2017-10-05T11:37:07.778Z,25.60
2017-10-05T11:39:36.042Z,26.80
2017-10-05T11:42:03.586Z,26.70
2017-10-05T11:44:31.850Z,25.40
2017-10-05T11:47:00.135Z,26.00
2017-10-05T11:49:28.398Z,26.00
2017-10-05T11:51:56.690Z,25.90
2017-10-05T11:54:24.959Z,25.50
2017-10-05T11:56:53.234Z,26.10
2017-10-05T11:59:21.517Z,26.60
2017-10-05T12:01:49.786Z,27.20
2017-10-05T12:04:18.057Z,27.30
2017-10-05T12:06:45.570Z,27.30
2017-10-05T12:09:13.075Z,27.00
2017-10-05T12:11:43.301Z,25.90
2017-10-05T12:14:11.563Z,26.20
2017-10-05T12:16:39.839Z,26.20
2017-10-05T12:19:07.357Z,26.00
2017-10-05T12:21:34.866Z,26.00
2017-10-05T12:24:03.159Z,26.30
2017-10-05T12:26:31.448Z,26.40
2017-10-05T12:28:58.966Z,26.40
2017-10-05T12:31:26.531Z,27.40
2017-10-05T12:33:54.072Z,27.90
2017-10-05T12:36:21.572Z,27.30
2017-10-05T12:38:49.846Z,27.00
2017-10-05T12:41:18.118Z,26.40
2017-10-05T12:43:46.410Z,26.50
2017-10-05T12:46:13.931Z,26.50
2017-10-05T12:48:41.457Z,27.10
2017-10-05T12:51:08.950Z,26.40
2017-10-05T12:53:36.493Z,26.00
2017-10-05T12:56:03.998Z,24.90
2017-10-05T12:58:31.522Z,24.90
2017-10-05T13:00:59.056Z,24.70
2017-10-05T13:03:26.598Z,26.30
2017-10-05T13:05:54.105Z,25.10
2017-10-05T13:08:21.607Z,24.50
2017-10-05T13:10:49.126Z,24.10
2017-10-05T13:13:17.394Z,25.20
2017-10-05T13:15:44.927Z,25.20
2017-10-05T13:18:12.456Z,24.90
2017-10-05T13:20:39.989Z,24.50
2017-10-05T13:23:07.534Z,24.90
2017-10-05T13:25:35.062Z,24.40
2017-10-05T13:28:02.890Z,24.70
2017-10-05T13:30:31.182Z,25.70
2017-10-05T13:32:59.443Z,24.90
2017-10-05T13:35:26.990Z,24.80
2017-10-05T13:37:54.509Z,25.00
2017-10-05T13:40:22.055Z,24.60
2017-10-05T13:42:49.612Z,24.90
2017-10-05T13:45:17.139Z,25.40
2017-10-05T13:47:44.650Z,25.40
2017-10-05T13:50:12.151Z,25.70
2017-10-05T13:52:39.692Z,25.30
2017-10-05T13:55:07.230Z,25.80
2017-10-05T13:57:34.765Z,26.10
2017-10-05T14:00:02.263Z,25.80
2017-10-05T14:02:29.777Z,26.30
2017-10-05T14:04:58.054Z,26.00
2017-10-05T14:07:25.577Z,26.00
2017-10-05T14:09:53.091Z,26.60
2017-10-05T14:12:20.615Z,26.30
2017-10-05T14:14:48.110Z,26.70
2017-10-05T14:17:15.618Z,27.10
2017-10-05T14:19:43.134Z,28.00
2017-10-05T14:22:10.667Z,26.80
2017-10-05T14:24:38.172Z,27.20
2017-10-05T14:27:05.670Z,27.30
2017-10-05T14:29:33.967Z,27.40
2017-10-05T14:32:01.472Z,27.40
2017-10-05T14:34:29.006Z,27.60
2017-10-05T14:36:56.510Z,26.90
2017-10-05T14:39:24.051Z,26.70
2017-10-05T14:41:51.565Z,27.00
2017-10-05T14:44:19.091Z,27.60
2017-10-05T14:46:46.865Z,27.30
2017-10-05T14:49:15.165Z,27.50
2017-10-05T14:51:42.687Z,27.50
2017-10-05T14:54:10.214Z,27.40
2017-10-05T14:56:37.709Z,27.10
2017-10-05T14:59:05.506Z,27.70
2017-10-05T15:01:33.002Z,27.60
2017-10-05T15:04:00.523Z,28.00
2017-10-05T15:06:28.028Z,27.80
2017-10-05T15:08:55.563Z,27.90
2017-10-05T15:11:23.062Z,27.90
2017-10-05T15:13:51.338Z,28.20
2017-10-05T15:16:19.615Z,28.10
2017-10-05T15:18:47.117Z,28.00
2017-10-05T15:21:14.665Z,28.30
2017-10-05T15:23:42.162Z,28.30
2017-10-05T15:26:09.666Z,27.90
2017-10-05T15:28:37.178Z,28.40
2017-10-05T15:31:04.686Z,28.90
2017-10-05T15:33:32.284Z,28.60
2017-10-05T15:35:59.832Z,28.30
2017-10-05T15:38:27.361Z,28.10
2017-10-05T15:40:54.890Z,28.10
2017-10-05T15:43:22.404Z,28.70
2017-10-05T15:45:49.925Z,29.10
2017-10-05T15:48:18.181Z,28.70
2017-10-05T15:50:45.710Z,28.70
2017-10-05T15:53:13.230Z,29.70
2017-10-05T15:55:40.753Z,30.80
2017-10-05T15:58:08.268Z,30.90
2017-10-05T16:00:35.765Z,31.20
2017-10-05T16:03:03.280Z,30.70
2017-10-05T16:05:30.789Z,32.50
2017-10-05T16:07:59.071Z,33.60
2017-10-05T16:10:27.347Z,34.50
2017-10-05T16:12:55.595Z,33.90
2017-10-05T16:15:23.107Z,34.10
2017-10-05T16:17:50.677Z,35.30
2017-10-05T16:20:18.909Z,36.10
2017-10-05T16:22:46.434Z,36.20
2017-10-05T16:25:13.933Z,36.20
2017-10-05T16:27:41.470Z,35.70
2017-10-05T16:30:08.978Z,35.70
2017-10-05T16:32:36.478Z,35.50
2017-10-05T16:35:03.993Z,35.60
2017-10-05T16:37:31.505Z,35.90
2017-10-05T16:39:59.796Z,36.00
2017-10-05T16:42:27.298Z,35.90
2017-10-05T16:44:54.814Z,36.10
2017-10-05T16:47:22.323Z,36.20
2017-10-05T16:49:49.846Z,36.30
2017-10-05T16:52:17.359Z,36.20
2017-10-05T16:54:45.646Z,36.00
2017-10-05T16:57:13.180Z,36.00
2017-10-05T16:59:41.486Z,36.20
2017-10-05T17:02:08.994Z,36.10
2017-10-05T17:04:36.537Z,36.20
2017-10-05T17:07:04.058Z,35.70
2017-10-05T17:09:32.340Z,35.70
2017-10-05T17:11:59.850Z,35.60
2017-10-05T17:14:27.354Z,35.60
2017-10-05T17:16:55.667Z,35.50
2017-10-05T17:19:23.176Z,35.50
2017-10-05T17:21:51.467Z,35.70
2017-10-05T17:24:19.735Z,35.50
2017-10-05T17:26:47.258Z,35.50
2017-10-05T17:29:14.761Z,35.50
2017-10-05T17:31:42.439Z,35.60
2017-10-05T17:34:09.934Z,35.80
2017-10-05T17:36:38.224Z,36.00
2017-10-05T17:39:05.719Z,36.00
2017-10-05T17:41:33.283Z,36.30
2017-10-05T17:44:00.856Z,36.70
2017-10-05T17:46:29.171Z,38.50
2017-10-05T17:48:57.446Z,40.10
2017-10-05T17:51:25.723Z,42.20
2017-10-05T17:53:54.040Z,44.80
2017-10-05T17:56:21.533Z,44.70
2017-10-05T17:58:49.055Z,47.00
2017-10-05T18:01:16.566Z,48.70
2017-10-05T18:03:45.167Z,50.10
2017-10-05T18:06:13.617Z,51.40
2017-10-05T18:08:41.138Z,52.00
2017-10-05T18:11:08.639Z,52.80
2017-10-05T18:13:41.788Z,53.30
2017-10-05T18:16:09.294Z,53.80
2017-10-05T18:18:36.813Z,54.50
2017-10-05T18:21:04.328Z,54.80
2017-10-05T18:23:33.841Z,54.80
2017-10-05T18:26:01.338Z,55.30
2017-10-05T18:28:48.446Z,55.50
2017-10-05T18:34:15.140Z,55.90
2017-10-05T18:36:43.421Z,56.80
2017-10-05T18:39:10.943Z,56.70
2017-10-05T18:41:38.460Z,56.90
2017-10-05T18:44:08.073Z,57.30
2017-10-05T18:46:43.671Z,57.50
2017-10-05T18:49:11.202Z,57.60
2017-10-05T18:51:38.705Z,57.90
2017-10-05T18:54:06.246Z,58.20
2017-10-05T18:56:33.797Z,58.30
2017-10-05T18:59:01.295Z,58.40
2017-10-05T19:01:28.814Z,58.60
2017-10-05T19:03:56.417Z,58.70
2017-10-05T19:06:23.949Z,59.00
2017-10-05T19:08:51.472Z,58.90
2017-10-05T19:11:19.018Z,59.20
2017-10-05T19:13:46.522Z,59.40
2017-10-05T19:16:14.039Z,60.20
2017-10-05T19:18:41.562Z,56.80
2017-10-05T19:21:09.063Z,56.80
2017-10-05T19:23:36.598Z,56.00
2017-10-05T19:26:04.117Z,55.90
2017-10-05T19:28:31.678Z,56.40
2017-10-05T19:30:59.200Z,56.30
2017-10-05T19:33:26.733Z,56.90
2017-10-05T19:35:54.249Z,57.00
2017-10-05T19:38:21.825Z,57.60
2017-10-05T19:40:49.387Z,57.70
2017-10-05T19:43:18.287Z,57.80
2017-10-05T19:45:45.847Z,57.70
2017-10-05T19:48:13.417Z,57.60
2017-10-05T19:50:40.945Z,58.00
2017-10-05T19:53:08.512Z,57.90
2017-10-05T19:55:36.028Z,58.30
2017-10-05T19:58:04.311Z,58.30
2017-10-05T20:00:32.723Z,58.10
2017-10-05T20:03:00.269Z,58.10
2017-10-05T20:05:27.795Z,58.30
2017-10-05T20:07:55.339Z,58.40
2017-10-05T20:10:23.687Z,58.40
2017-10-05T20:12:51.195Z,58.40
2017-10-05T20:18:38.238Z,58.60
2017-10-05T20:21:12.215Z,58.90
2017-10-05T20:27:00.414Z,58.80
2017-10-05T20:29:33.644Z,59.00
2017-10-05T20:32:04.660Z,58.90
2017-10-05T20:34:32.179Z,59.00
2017-10-05T20:36:59.736Z,58.80
2017-10-05T20:39:27.264Z,58.80
2017-10-05T20:41:54.795Z,58.90
2017-10-05T20:44:22.315Z,58.90
2017-10-05T20:46:50.862Z,59.10
2017-10-05T20:49:18.378Z,59.20
2017-10-05T20:51:45.916Z,59.10
2017-10-05T20:54:13.476Z,59.10
2017-10-05T20:56:40.995Z,59.10
2017-10-05T20:59:08.516Z,59.20
2017-10-05T21:01:36.019Z,59.20
2017-10-05T21:04:03.541Z,59.30
2017-10-05T21:06:31.060Z,59.40
2017-10-05T21:08:58.615Z,59.50
2017-10-05T21:11:26.936Z,59.80
2017-10-05T21:13:54.471Z,59.60
2017-10-05T21:16:22.000Z,59.60
2017-10-05T21:18:49.529Z,59.40
2017-10-05T21:21:17.044Z,59.40
2017-10-05T21:23:44.558Z,59.60
2017-10-05T21:26:12.836Z,60.20
2017-10-05T21:28:42.083Z,59.60
2017-10-05T21:31:09.589Z,59.50
2017-10-05T21:33:37.101Z,59.60
2017-10-05T21:36:07.452Z,59.70
2017-10-05T21:38:34.973Z,59.70
2017-10-05T21:41:02.497Z,59.70
2017-10-05T21:43:30.774Z,60.10
2017-10-05T21:45:59.059Z,59.80
2017-10-05T21:48:26.589Z,59.70
2017-10-05T21:50:54.112Z,60.40
2017-10-05T21:53:21.648Z,60.00
2017-10-05T21:55:49.171Z,59.90
2017-10-05T21:58:16.716Z,59.90
2017-10-05T22:00:44.266Z,59.60
2017-10-05T22:03:11.827Z,59.60
2017-10-05T22:05:39.399Z,59.50
2017-10-05T22:08:06.936Z,59.50
2017-10-05T22:10:34.460Z,59.60
2017-10-05T22:13:01.982Z,59.50
2017-10-05T22:15:29.495Z,59.40
2017-10-05T22:17:57.803Z,59.60
2017-10-05T22:20:25.337Z,59.60
2017-10-05T22:22:54.026Z,59.70
2017-10-05T22:25:22.312Z,59.40
2017-10-05T22:27:50.615Z,59.50
2017-10-05T22:30:18.139Z,59.40
2017-10-05T22:32:46.451Z,59.40
2017-10-05T22:35:13.955Z,59.20
2017-10-05T22:37:41.507Z,59.40
2017-10-05T22:40:09.035Z,59.20
2017-10-05T22:42:36.667Z,59.30
2017-10-05T22:45:04.219Z,59.20
2017-10-05T22:47:32.503Z,59.60
2017-10-05T22:50:00.047Z,59.60
2017-10-05T22:52:28.322Z,59.50
2017-10-05T22:54:56.754Z,59.60
2017-10-05T22:57:24.301Z,59.50
2017-10-05T22:59:51.835Z,59.70
2017-10-05T23:02:20.117Z,59.90
2017-10-05T23:04:47.659Z,59.90
2017-10-05T23:07:15.172Z,59.90
2017-10-05T23:09:42.716Z,59.90
2017-10-05T23:12:10.236Z,60.10
2017-10-05T23:14:38.533Z,60.20
2017-10-05T23:17:06.843Z,60.30
2017-10-05T23:19:34.380Z,60.30
2017-10-05T23:22:01.910Z,60.20
2017-10-05T23:24:30.204Z,60.00
2017-10-05T23:26:57.770Z,60.00
2017-10-05T23:29:25.291Z,60.20
2017-10-05T23:31:52.828Z,60.10
2017-10-05T23:34:20.335Z,59.90
2017-10-05T23:36:48.614Z,59.90
2017-10-05T23:39:16.139Z,59.80
2017-10-05T23:41:43.656Z,59.90
2017-10-05T23:44:11.191Z,59.90
2017-10-05T23:46:38.705Z,59.80
2017-10-05T23:49:06.235Z,59.90
2017-10-05T23:51:33.756Z,60.00
2017-10-05T23:54:01.339Z,60.20
2017-10-05T23:56:28.862Z,60.30
2017-10-05T23:58:56.369Z,60.30
